Time;durP1;ratioP1;P1;durP2;ratioP2;P2;SDS_P1;SDS_P2;PMS_P1;PMS_P2;Temp;Humidity;BMP_temperature;BMP_pressure;BME280_temperature;BME280_humidity;BME280_pressure;Samples;Min_cycle;Max_cycle;Signal;HPM_P1;HPM_P2
2020/12/18 00:01:27;;;;;;;22.52;14.60;;;4.70;99.90;;;;;;5015665;28;20203;-79
2020/12/18 00:03:55;;;;;;;22.38;15.70;;;4.60;99.90;;;;;;5014642;28;20200;-80
2020/12/18 00:06:22;;;;;;;24.17;17.20;;;4.50;99.90;;;;;;5014640;28;20211;-80
2020/12/18 00:08:48;;;;;;;25.70;14.90;;;4.30;99.90;;;;;;5015499;28;20235;-80
2020/12/18 00:11:23;;;;;;;19.65;14.07;;;4.30;99.90;;;;;;5015339;28;20623;-80
2020/12/18 00:13:50;;;;;;;21.73;15.25;;;4.30;99.90;;;;;;5015464;28;20609;-79
2020/12/18 00:16:17;;;;;;;24.10;15.10;;;4.40;99.90;;;;;;5015219;28;20298;-80
2020/12/18 00:18:43;;;;;;;16.17;12.25;;;4.40;99.90;;;;;;5014405;28;20311;-79
2020/12/18 00:21:10;;;;;;;18.45;13.38;;;4.50;99.90;;;;;;5015123;28;20718;-79
2020/12/18 00:23:36;;;;;;;17.35;12.65;;;4.50;99.90;;;;;;5015310;28;20204;-79
2020/12/18 00:26:03;;;;;;;15.55;11.77;;;4.50;99.90;;;;;;5014737;28;20621;-79
2020/12/18 00:28:30;;;;;;;22.73;12.18;;;4.50;99.90;;;;;;5015050;28;20726;-79
2020/12/18 00:30:57;;;;;;;18.88;11.57;;;4.60;99.90;;;;;;5012151;28;20199;-79
2020/12/18 00:33:24;;;;;;;15.82;10.88;;;4.60;99.90;;;;;;5014868;28;20334;-79
2020/12/18 00:35:50;;;;;;;13.30;9.98;;;4.60;99.90;;;;;;5013586;28;20617;-79
2020/12/18 00:38:17;;;;;;;19.65;12.38;;;4.60;99.90;;;;;;5014671;28;20669;-79
2020/12/18 00:40:45;;;;;;;14.80;11.23;;;4.70;99.90;;;;;;5014511;28;20298;-79
2020/12/18 00:43:11;;;;;;;15.57;12.75;;;4.60;99.90;;;;;;5014668;28;20207;-78
2020/12/18 00:45:38;;;;;;;17.63;11.57;;;4.50;99.90;;;;;;5014800;28;20215;-79
2020/12/18 00:48:05;;;;;;;16.77;12.25;;;4.40;99.90;;;;;;5011612;28;20243;-79
2020/12/18 00:50:33;;;;;;;16.95;12.75;;;4.30;99.90;;;;;;5013353;28;20215;-80
2020/12/18 00:52:59;;;;;;;18.10;11.60;;;4.30;99.90;;;;;;5014577;28;20286;-78
2020/12/18 00:55:26;;;;;;;14.82;11.02;;;4.30;99.90;;;;;;5014108;28;20689;-79
2020/12/18 00:57:52;;;;;;;17.05;11.93;;;4.30;99.90;;;;;;5014421;28;20242;-79
2020/12/18 01:00:18;;;;;;;13.55;10.65;;;4.30;99.90;;;;;;5014290;28;20333;-79
2020/12/18 01:02:46;;;;;;;15.38;10.82;;;4.30;99.90;;;;;;5014227;28;20207;-79
2020/12/18 01:05:12;;;;;;;12.70;9.90;;;4.30;99.90;;;;;;5012855;28;20298;-78
2020/12/18 01:07:38;;;;;;;11.73;8.85;;;4.30;99.90;;;;;;5013948;28;20672;-79
2020/12/18 01:10:05;;;;;;;9.90;8.90;;;4.30;99.90;;;;;;5013803;28;20315;-78
2020/12/18 01:12:31;;;;;;;13.02;9.65;;;4.30;99.90;;;;;;5013992;28;20257;-79
2020/12/18 01:14:57;;;;;;;12.95;11.63;;;4.30;99.90;;;;;;5013965;28;20203;-79
2020/12/18 01:17:24;;;;;;;12.02;9.93;;;4.10;99.90;;;;;;5013841;28;20212;-79
2020/12/18 01:19:51;;;;;;;11.35;9.50;;;4.00;99.90;;;;;;5012748;28;20209;-79
2020/12/18 01:22:17;;;;;;;15.35;11.88;;;3.90;99.90;;;;;;5013849;28;20334;-79
2020/12/18 01:24:44;;;;;;;14.77;10.73;;;3.80;99.90;;;;;;5012979;28;20306;-79
2020/12/18 01:27:10;;;;;;;18.88;11.88;;;3.80;99.90;;;;;;5013781;28;20637;-79
2020/12/18 01:29:37;;;;;;;18.20;11.55;;;3.80;99.90;;;;;;5013935;28;20230;-79
2020/12/18 01:32:03;;;;;;;11.50;10.15;;;3.80;99.90;;;;;;5013611;28;20265;-79
2020/12/18 01:34:29;;;;;;;12.98;10.23;;;3.80;99.90;;;;;;5012520;28;20382;-78
2020/12/18 01:36:57;;;;;;;14.10;9.00;;;3.90;99.90;;;;;;5013418;28;20227;-79
2020/12/18 01:39:23;;;;;;;12.93;10.55;;;3.80;99.90;;;;;;5013568;28;20199;-79
2020/12/18 01:41:49;;;;;;;13.88;9.63;;;4.00;99.90;;;;;;5013488;28;20294;-79
2020/12/18 01:44:16;;;;;;;15.80;9.70;;;4.00;99.90;;;;;;5013514;28;20298;-79
2020/12/18 01:46:55;;;;;;;13.95;9.75;;;4.00;99.90;;;;;;5013477;28;20238;-79
2020/12/18 01:49:22;;;;;;;18.17;11.13;;;4.00;99.90;;;;;;5012099;28;20245;-79
2020/12/18 01:51:49;;;;;;;13.18;9.82;;;4.00;99.90;;;;;;5013500;28;20610;-80
2020/12/18 01:54:19;;;;;;;12.15;10.73;;;4.00;99.90;;;;;;5013328;28;20635;-80
2020/12/18 01:56:45;;;;;;;11.40;9.27;;;3.90;99.90;;;;;;5013035;28;20678;-79
2020/12/18 01:59:12;;;;;;;11.15;8.52;;;3.80;99.90;;;;;;5013419;28;20287;-79
2020/12/18 02:01:39;;;;;;;12.23;9.60;;;3.80;99.90;;;;;;5013289;28;20219;-80
2020/12/18 02:04:07;;;;;;;11.68;9.35;;;3.80;99.90;;;;;;5011987;28;20203;-79
2020/12/18 02:06:37;;;;;;;11.15;8.82;;;3.80;99.90;;;;;;5013325;28;20294;-79
2020/12/18 02:09:05;;;;;;;13.95;9.30;;;3.80;99.90;;;;;;5013248;28;20325;-79
2020/12/18 02:11:32;;;;;;;12.00;8.77;;;3.80;99.90;;;;;;5012857;28;20294;-79
2020/12/18 02:13:59;;;;;;;11.85;9.20;;;3.80;99.90;;;;;;5013132;28;20298;-79
2020/12/18 02:16:25;;;;;;;13.23;9.15;;;3.80;99.90;;;;;;5009276;28;20208;-79
2020/12/18 02:18:52;;;;;;;12.15;9.40;;;3.70;99.90;;;;;;5011662;28;20203;-79
2020/12/18 02:21:19;;;;;;;15.25;10.55;;;3.70;99.90;;;;;;5012967;28;20306;-79
2020/12/18 02:23:48;;;;;;;11.57;8.45;;;3.70;99.90;;;;;;5013184;28;20644;-79
2020/12/18 02:26:18;;;;;;;10.48;9.52;;;3.70;99.90;;;;;;5012752;28;20269;-79
2020/12/18 02:28:45;;;;;;;11.55;8.95;;;3.70;99.90;;;;;;5012993;28;20502;-78
2020/12/18 02:31:12;;;;;;;9.88;8.25;;;3.60;99.90;;;;;;5016323;28;20199;-79
2020/12/18 02:33:41;;;;;;;11.25;8.45;;;3.60;99.90;;;;;;5016771;28;20320;-79
2020/12/18 02:36:07;;;;;;;10.10;7.28;;;3.60;99.90;;;;;;5015533;28;20203;-79
2020/12/18 02:38:34;;;;;;;10.60;7.78;;;3.70;99.90;;;;;;5016831;28;20282;-79
2020/12/18 02:41:00;;;;;;;10.40;8.23;;;3.70;99.90;;;;;;5016634;28;20221;-79
2020/12/18 02:43:28;;;;;;;15.35;8.32;;;3.60;99.90;;;;;;5016765;28;20227;-79
2020/12/18 02:45:54;;;;;;;10.52;9.48;;;3.60;99.90;;;;;;5016627;28;20267;-79
2020/12/18 02:48:21;;;;;;;10.35;7.95;;;3.50;99.90;;;;;;5016712;28;20239;-78
2020/12/18 02:50:49;;;;;;;10.38;7.60;;;3.50;99.90;;;;;;5015426;28;20290;-80
2020/12/18 02:53:17;;;;;;;16.63;10.50;;;3.50;99.90;;;;;;5016706;28;20211;-79
2020/12/18 02:55:44;;;;;;;16.63;8.93;;;3.40;99.90;;;;;;5016326;28;20656;-79
2020/12/18 02:58:11;;;;;;;11.70;8.10;;;3.40;99.90;;;;;;5016634;28;20210;-79
2020/12/18 03:00:38;;;;;;;11.90;9.18;;;3.50;99.90;;;;;;5016652;28;20200;-80
2020/12/18 03:03:05;;;;;;;14.18;8.13;;;3.50;99.90;;;;;;5016553;28;20310;-79
2020/12/18 03:05:32;;;;;;;14.70;9.45;;;3.40;99.90;;;;;;5015704;28;20267;-81
2020/12/18 03:07:59;;;;;;;14.82;11.52;;;3.80;99.90;;;;;;5018137;28;20601;-79
2020/12/18 03:10:25;;;;;;;12.20;10.52;;;4.10;99.90;;;;;;5017358;28;20290;-79
2020/12/18 03:12:52;;;;;;;15.30;10.75;;;4.20;99.90;;;;;;5017958;28;20207;-79
2020/12/18 03:15:19;;;;;;;13.80;10.18;;;4.40;99.90;;;;;;5018343;28;20237;-79
2020/12/18 03:17:46;;;;;;;14.02;10.63;;;4.40;99.90;;;;;;5019137;28;20207;-79
2020/12/18 03:20:12;;;;;;;14.02;10.00;;;4.20;99.90;;;;;;5015109;28;20203;-80
2020/12/18 03:22:40;;;;;;;15.00;10.50;;;4.00;99.90;;;;;;5016285;28;20302;-79
2020/12/18 03:25:07;;;;;;;10.88;7.82;;;3.90;99.90;;;;;;5015917;28;20663;-79
2020/12/18 03:27:33;;;;;;;9.45;8.00;;;3.90;99.90;;;;;;5015888;28;20317;-79
2020/12/18 03:29:59;;;;;;;7.40;6.70;;;3.80;99.90;;;;;;5016051;28;20637;-79
2020/12/18 03:32:26;;;;;;;9.77;7.57;;;3.70;99.90;;;;;;5015642;28;20330;-79
2020/12/18 03:34:53;;;;;;;16.10;8.75;;;3.70;99.90;;;;;;5014867;28;20235;-80
2020/12/18 03:37:19;;;;;;;9.18;8.05;;;3.70;99.90;;;;;;5009100;28;20266;-79
2020/12/18 03:39:46;;;;;;;8.00;6.38;;;3.70;99.90;;;;;;5015929;28;20295;-80
2020/12/18 03:42:12;;;;;;;10.40;7.70;;;3.80;99.90;;;;;;5009356;28;20208;-80
2020/12/18 03:44:39;;;;;;;8.80;7.90;;;3.80;99.90;;;;;;5015864;28;20247;-79
2020/12/18 03:47:05;;;;;;;12.45;7.75;;;3.90;99.90;;;;;;5015663;28;20715;-80
2020/12/18 03:49:31;;;;;;;7.63;6.75;;;3.80;99.90;;;;;;5007734;28;20214;-79
2020/12/18 03:51:58;;;;;;;9.13;7.55;;;3.80;99.90;;;;;;5015600;28;20290;-80
2020/12/18 03:54:25;;;;;;;9.32;7.35;;;3.90;99.90;;;;;;5015499;28;20234;-79
2020/12/18 03:56:51;;;;;;;15.00;11.60;;;3.90;99.90;;;;;;5015087;28;20254;-79
2020/12/18 03:59:17;;;;;;;13.25;10.52;;;4.00;99.90;;;;;;5015427;28;20299;-79
2020/12/18 04:01:44;;;;;;;10.45;9.35;;;4.00;99.90;;;;;;5015205;28;20291;-79
2020/12/18 04:04:10;;;;;;;14.10;8.25;;;4.00;99.90;;;;;;5014061;28;20212;-79
2020/12/18 04:06:36;;;;;;;9.40;8.38;;;4.10;99.90;;;;;;5015389;28;20669;-79
2020/12/18 04:09:04;;;;;;;9.07;7.97;;;4.20;99.90;;;;;;5015356;28;20237;-82
2020/12/18 04:11:30;;;;;;;9.27;8.20;;;4.20;99.90;;;;;;5015158;28;20235;-82
2020/12/18 04:13:56;;;;;;;8.68;7.47;;;4.20;99.90;;;;;;5015423;28;20683;-81
2020/12/18 04:16:23;;;;;;;8.27;7.45;;;4.20;99.90;;;;;;5015237;28;20302;-82
2020/12/18 04:18:50;;;;;;;8.40;6.15;;;4.30;99.90;;;;;;5013753;28;20290;-82
2020/12/18 04:21:17;;;;;;;8.07;7.15;;;4.40;99.90;;;;;;5015445;28;20203;-81
2020/12/18 04:23:43;;;;;;;9.38;7.20;;;4.40;99.90;;;;;;5015351;28;20212;-81
2020/12/18 04:26:10;;;;;;;12.95;8.18;;;4.50;99.90;;;;;;5015197;28;20667;-82
2020/12/18 04:28:37;;;;;;;10.05;7.00;;;4.50;99.90;;;;;;5015843;28;20322;-82
2020/12/18 04:31:03;;;;;;;9.30;8.35;;;4.60;99.90;;;;;;5015444;28;20214;-82
2020/12/18 04:33:29;;;;;;;7.85;7.18;;;4.60;99.90;;;;;;5015019;28;20323;-82
2020/12/18 04:35:56;;;;;;;8.25;7.35;;;4.60;99.90;;;;;;5014362;28;20747;-82
2020/12/18 04:38:22;;;;;;;7.22;6.50;;;4.60;99.90;;;;;;5014874;28;20298;-81
2020/12/18 04:40:49;;;;;;;8.65;7.75;;;4.60;99.90;;;;;;5014782;28;20207;-82
2020/12/18 04:43:16;;;;;;;10.25;7.45;;;4.60;99.90;;;;;;5015009;28;20269;-83
2020/12/18 04:45:43;;;;;;;7.65;6.95;;;4.50;99.90;;;;;;5014827;28;20225;-82
2020/12/18 04:48:12;;;;;;;9.75;8.75;;;4.50;99.90;;;;;;5014702;28;20380;-81
2020/12/18 04:50:38;;;;;;;13.05;10.00;;;4.40;99.90;;;;;;5013300;28;20211;-82
2020/12/18 04:53:06;;;;;;;11.55;9.25;;;4.40;99.90;;;;;;5015392;28;20239;-82
2020/12/18 04:55:35;;;;;;;12.50;9.40;;;4.50;99.90;;;;;;5015644;28;20287;-82
2020/12/18 04:58:03;;;;;;;9.07;7.40;;;4.70;99.90;;;;;;5014883;28;20273;-82
2020/12/18 05:00:30;;;;;;;10.38;8.00;;;4.70;99.90;;;;;;5016245;28;20298;-81
2020/12/18 05:03:00;;;;;;;11.10;8.15;;;4.60;99.90;;;;;;5016321;28;20267;-81
2020/12/18 05:05:26;;;;;;;10.88;9.02;;;4.50;99.90;;;;;;5017150;28;20271;-83
2020/12/18 05:07:53;;;;;;;17.83;9.13;;;4.50;99.90;;;;;;5033775;28;20254;-82
2020/12/18 05:10:21;;;;;;;9.75;8.63;;;4.60;99.90;;;;;;5035215;28;20231;-82
2020/12/18 05:12:48;;;;;;;11.32;7.85;;;4.60;99.90;;;;;;5038041;28;20202;-82
2020/12/18 05:15:14;;;;;;;12.30;8.25;;;4.60;99.90;;;;;;5030506;28;20295;-82
2020/12/18 05:17:43;;;;;;;14.43;9.93;;;4.60;99.90;;;;;;5015979;28;20547;-82
2020/12/18 05:20:10;;;;;;;10.85;8.70;;;4.60;99.90;;;;;;5014087;28;20241;-82
2020/12/18 05:22:37;;;;;;;11.45;8.60;;;4.50;99.90;;;;;;5014510;28;20207;-82
2020/12/18 05:25:04;;;;;;;12.07;8.40;;;4.50;99.90;;;;;;5014154;28;20679;-83
2020/12/18 05:27:31;;;;;;;9.10;8.18;;;4.40;99.90;;;;;;5013541;28;20243;-82
2020/12/18 05:30:05;;;;;;;10.30;7.82;;;4.40;99.90;;;;;;5013808;28;20246;-82
2020/12/18 05:32:33;;;;;;;12.68;9.05;;;4.30;99.90;;;;;;5013467;28;20234;-84
2020/12/18 05:35:00;;;;;;;9.38;7.88;;;4.20;99.90;;;;;;5012674;28;20208;-83
2020/12/18 05:37:34;;;;;;;11.82;7.72;;;4.20;99.90;;;;;;5013443;28;20294;-82
2020/12/18 05:40:01;;;;;;;10.93;8.70;;;4.20;99.90;;;;;;5013545;28;20959;-82
2020/12/18 05:42:27;;;;;;;11.70;9.18;;;4.10;99.90;;;;;;5013532;28;20260;-83
2020/12/18 05:44:54;;;;;;;11.18;9.95;;;4.10;99.90;;;;;;5013491;28;20683;-83
2020/12/18 05:47:20;;;;;;;16.23;9.57;;;4.10;99.90;;;;;;5013706;28;20218;-83
2020/12/18 05:49:46;;;;;;;11.57;8.82;;;4.10;99.90;;;;;;5012052;28;20257;-83
2020/12/18 05:52:20;;;;;;;12.60;11.05;;;4.00;99.90;;;;;;5013928;28;20214;-83
2020/12/18 05:54:48;;;;;;;12.30;8.55;;;3.80;99.90;;;;;;5014776;28;20203;-82
2020/12/18 05:57:16;;;;;;;14.63;10.55;;;3.80;99.90;;;;;;5013442;28;20205;-83
2020/12/18 05:59:43;;;;;;;11.68;9.95;;;3.70;99.90;;;;;;5013357;28;20294;-83
2020/12/18 06:02:12;;;;;;;16.98;11.18;;;3.70;99.90;;;;;;5013511;28;20207;-83
2020/12/18 06:04:39;;;;;;;13.10;8.80;;;3.70;99.90;;;;;;5011562;28;20226;-83
2020/12/18 06:07:06;;;;;;;14.02;10.55;;;3.70;99.90;;;;;;5013622;28;20211;-81
2020/12/18 06:09:35;;;;;;;13.07;10.55;;;3.70;99.90;;;;;;5013047;28;20239;-82
2020/12/18 06:12:06;;;;;;;13.43;11.10;;;3.80;99.90;;;;;;5013005;28;20290;-82
2020/12/18 06:14:33;;;;;;;12.25;10.60;;;3.90;99.90;;;;;;5013333;28;20298;-83
2020/12/18 06:17:06;;;;;;;11.27;9.68;;;3.90;99.90;;;;;;5013118;28;20208;-84
2020/12/18 06:19:37;;;;;;;11.30;9.23;;;4.00;99.90;;;;;;5011989;28;20234;-82
2020/12/18 06:22:07;;;;;;;11.90;9.95;;;3.90;99.90;;;;;;5012982;28;20302;-83
2020/12/18 06:24:39;;;;;;;13.85;10.48;;;3.90;99.90;;;;;;5013379;28;20294;-82
2020/12/18 06:27:08;;;;;;;11.85;9.57;;;3.80;99.90;;;;;;5012903;28;20208;-83
2020/12/18 06:29:34;;;;;;;12.63;9.20;;;3.90;99.90;;;;;;5013218;28;20233;-82
2020/12/18 06:32:26;;;;;;;13.00;10.23;;;3.80;99.90;;;;;;5012906;28;20557;-82
2020/12/18 06:34:53;;;;;;;12.70;10.02;;;3.90;99.90;;;;;;5011517;28;20211;-82
2020/12/18 06:37:29;;;;;;;13.02;10.95;;;3.90;99.90;;;;;;5013144;28;20200;-82
2020/12/18 06:39:57;;;;;;;15.00;11.65;;;3.90;99.90;;;;;;5012899;28;20341;-83
2020/12/18 06:42:24;;;;;;;16.70;10.05;;;4.00;99.90;;;;;;5012622;28;20203;-83
2020/12/18 06:44:53;;;;;;;12.00;10.45;;;4.00;99.90;;;;;;5013051;28;20239;-84
2020/12/18 06:47:21;;;;;;;17.60;9.30;;;4.10;99.90;;;;;;5013276;28;20570;-86
2020/12/18 06:50:03;;;;;;;13.75;10.65;;;4.10;99.90;;;;;;5011729;28;20285;-84
2020/12/18 06:52:51;;;;;;;11.00;9.73;;;4.10;99.90;;;;;;5012890;28;20294;-83
2020/12/18 06:55:39;;;;;;;14.88;9.93;;;4.10;99.90;;;;;;5012670;28;20302;-82
2020/12/18 06:58:13;;;;;;;13.60;9.73;;;4.20;99.90;;;;;;5013021;28;20247;-81
2020/12/18 07:00:47;;;;;;;15.23;11.30;;;4.20;99.90;;;;;;5012751;28;20215;-83
2020/12/18 07:03:36;;;;;;;12.05;8.50;;;4.20;99.90;;;;;;5013699;28;20341;-82
2020/12/18 07:06:04;;;;;;;13.65;9.60;;;4.20;99.90;;;;;;5011766;28;20536;-84
2020/12/18 07:08:33;;;;;;;14.23;9.32;;;4.20;99.90;;;;;;5012467;28;20303;-83
2020/12/18 07:11:03;;;;;;;13.93;10.73;;;4.10;99.90;;;;;;5012345;28;20210;-83
2020/12/18 07:13:31;;;;;;;20.08;13.02;;;4.10;99.90;;;;;;5012553;28;20208;-82
2020/12/18 07:16:01;;;;;;;13.50;10.20;;;4.10;99.90;;;;;;5013925;28;20199;-81
2020/12/18 07:18:30;;;;;;;12.75;10.88;;;4.10;99.90;;;;;;5016303;28;20306;-82
2020/12/18 07:20:58;;;;;;;13.20;10.60;;;4.10;99.90;;;;;;5015358;28;20207;-83
2020/12/18 07:23:26;;;;;;;12.63;9.90;;;4.50;99.90;;;;;;5015866;28;20206;-83
2020/12/18 07:25:54;;;;;;;11.77;8.60;;;4.50;99.90;;;;;;5015753;28;20671;-84
2020/12/18 07:28:24;;;;;;;16.40;10.45;;;4.50;99.90;;;;;;5015828;28;20881;-83
2020/12/18 07:30:51;;;;;;;15.90;10.10;;;4.50;99.90;;;;;;5015870;28;20294;-83
2020/12/18 07:33:19;;;;;;;15.85;10.38;;;4.40;99.90;;;;;;5015816;28;20715;-83
2020/12/18 07:35:46;;;;;;;13.25;9.50;;;4.50;99.90;;;;;;5011393;28;20212;-83
2020/12/18 07:38:18;;;;;;;17.10;11.48;;;4.50;99.90;;;;;;5015842;28;20294;-83
2020/12/18 07:40:46;;;;;;;15.50;12.48;;;4.50;99.90;;;;;;5015666;28;20211;-82
2020/12/18 07:43:14;;;;;;;11.98;10.55;;;4.40;99.90;;;;;;5015233;28;20203;-82
2020/12/18 07:45:43;;;;;;;14.55;11.32;;;4.60;99.90;;;;;;5016113;28;20295;-83
2020/12/18 07:48:16;;;;;;;12.20;10.52;;;4.50;99.90;;;;;;5016402;28;20231;-82
2020/12/18 07:50:53;;;;;;;15.45;11.23;;;4.60;99.90;;;;;;5014688;28;20234;-82
2020/12/18 07:53:21;;;;;;;11.57;9.57;;;4.60;99.90;;;;;;5016863;28;20283;-81
2020/12/18 07:56:13;;;;;;;13.35;11.00;;;4.50;99.90;;;;;;4967343;28;20222;-83
2020/12/18 07:58:47;;;;;;;15.32;11.70;;;4.70;99.90;;;;;;4996249;28;20258;-77
2020/12/18 08:01:16;;;;;;;19.15;13.25;;;4.80;99.90;;;;;;5016178;28;20602;-83
2020/12/18 08:03:46;;;;;;;16.85;14.40;;;5.50;99.90;;;;;;5015549;28;20698;-81
2020/12/18 08:06:15;;;;;;;15.15;11.05;;;5.30;99.90;;;;;;5015548;28;20208;-82
2020/12/18 08:08:47;;;;;;;13.52;11.18;;;5.30;99.90;;;;;;5015008;28;20318;-81
2020/12/18 08:11:17;;;;;;;12.45;8.73;;;5.20;99.90;;;;;;5015154;28;20199;-81
2020/12/18 08:13:43;;;;;;;12.10;9.55;;;5.10;99.90;;;;;;5015516;28;20625;-82
2020/12/18 08:16:14;;;;;;;10.65;8.80;;;5.00;99.90;;;;;;5015121;28;20303;-81
2020/12/18 08:18:50;;;;;;;11.82;9.70;;;4.90;99.90;;;;;;5015047;28;20207;-82
2020/12/18 08:21:20;;;;;;;10.90;9.80;;;4.80;99.90;;;;;;5015079;28;20210;-82
2020/12/18 08:23:52;;;;;;;9.15;7.80;;;4.70;99.90;;;;;;5014934;28;20294;-82
2020/12/18 08:26:20;;;;;;;11.90;9.13;;;4.80;99.90;;;;;;5014223;28;20203;-83
2020/12/18 08:28:47;;;;;;;14.55;8.48;;;4.80;99.90;;;;;;5014046;28;20318;-82
2020/12/18 08:31:15;;;;;;;11.10;8.10;;;4.80;99.90;;;;;;5014688;28;20727;-81
2020/12/18 08:33:53;;;;;;;8.65;7.45;;;4.80;99.90;;;;;;5014450;28;20330;-82
2020/12/18 08:36:23;;;;;;;11.75;9.48;;;4.90;99.90;;;;;;5014689;28;20283;-82
2020/12/18 08:39:00;;;;;;;10.57;8.50;;;4.90;99.90;;;;;;5014596;28;20229;-81
2020/12/18 08:41:39;;;;;;;11.85;7.88;;;4.90;99.90;;;;;;5014519;28;20805;-82
2020/12/18 08:44:06;;;;;;;9.23;8.23;;;4.90;99.90;;;;;;5014843;28;20210;-82
2020/12/18 08:46:34;;;;;;;14.18;10.10;;;5.00;99.90;;;;;;5014668;28;20204;-81
2020/12/18 08:49:10;;;;;;;11.68;8.90;;;5.10;99.90;;;;;;5014844;28;20685;-82
2020/12/18 08:51:38;;;;;;;8.60;7.43;;;5.10;99.90;;;;;;5014280;28;20293;-83
2020/12/18 08:54:19;;;;;;;12.25;8.27;;;5.10;99.90;;;;;;5014898;28;20298;-81
2020/12/18 08:56:45;;;;;;;13.73;9.43;;;5.30;99.90;;;;;;5013705;28;20207;-83
2020/12/18 08:59:16;;;;;;;11.90;9.48;;;5.40;99.90;;;;;;5016439;28;20289;-81
2020/12/18 09:01:49;;;;;;;11.35;8.05;;;5.50;99.90;;;;;;5015338;28;20243;-81
2020/12/18 09:04:16;;;;;;;11.55;9.93;;;5.50;99.90;;;;;;5013436;28;20211;-82
2020/12/18 09:06:50;;;;;;;10.63;9.43;;;5.60;99.90;;;;;;5014844;28;20227;-81
2020/12/18 09:09:17;;;;;;;13.10;9.07;;;5.70;99.90;;;;;;5015681;28;20230;-82
2020/12/18 09:11:45;;;;;;;12.65;9.52;;;5.70;99.90;;;;;;5015745;28;20715;-81
2020/12/18 09:14:26;;;;;;;12.98;9.93;;;5.60;99.90;;;;;;5015297;28;20199;-81
2020/12/18 09:16:56;;;;;;;16.55;9.65;;;5.70;99.90;;;;;;5014197;28;20217;-82
2020/12/18 09:19:23;;;;;;;10.75;8.48;;;5.80;99.90;;;;;;5013269;28;20207;-80
2020/12/18 09:22:01;;;;;;;9.23;8.18;;;6.00;99.90;;;;;;5014214;28;20207;-81
2020/12/18 09:24:27;;;;;;;13.65;11.18;;;6.00;99.90;;;;;;5015980;28;20294;-82
2020/12/18 09:27:07;;;;;;;13.55;10.35;;;6.00;99.90;;;;;;5013663;28;20283;-80
2020/12/18 09:29:33;;;;;;;13.43;10.07;;;6.10;99.90;;;;;;5014689;28;20942;-83
2020/12/18 09:32:00;;;;;;;13.43;12.02;;;6.20;99.90;;;;;;5013770;28;20208;-81
2020/12/18 09:34:28;;;;;;;14.45;9.90;;;6.40;99.90;;;;;;5013203;28;20302;-82
2020/12/18 09:36:55;;;;;;;12.90;10.63;;;6.50;99.90;;;;;;5014063;28;20219;-82
2020/12/18 09:39:21;;;;;;;17.58;10.52;;;6.60;99.90;;;;;;5013741;28;20354;-82
2020/12/18 09:41:47;;;;;;;16.35;11.32;;;6.60;99.90;;;;;;5015424;28;20311;-81
2020/12/18 09:44:14;;;;;;;39.30;23.63;;;6.70;99.90;;;;;;5011290;28;20647;-81
2020/12/18 09:46:40;;;;;;;26.08;15.35;;;6.70;99.90;;;;;;5013898;28;20474;-82
2020/12/18 09:49:06;;;;;;;28.15;19.67;;;6.70;99.90;;;;;;5013735;28;20342;-83
2020/12/18 09:51:35;;;;;;;15.82;11.57;;;6.70;99.90;;;;;;5013590;28;20227;-81
2020/12/18 09:54:01;;;;;;;10.10;9.00;;;6.80;99.90;;;;;;5014206;28;20243;-81
2020/12/18 09:56:27;;;;;;;11.93;8.80;;;6.70;99.90;;;;;;5014790;28;20295;-79
2020/12/18 09:58:54;;;;;;;71.38;16.83;;;6.80;99.90;;;;;;5014008;28;20532;-80
2020/12/18 10:01:23;;;;;;;11.27;8.50;;;7.00;99.90;;;;;;5014978;28;20372;-80
2020/12/18 10:03:50;;;;;;;11.98;8.68;;;7.10;99.90;;;;;;5012354;28;20832;-80
2020/12/18 10:06:16;;;;;;;36.23;13.83;;;7.20;99.90;;;;;;5013795;28;20294;-81
2020/12/18 10:08:45;;;;;;;12.20;9.13;;;7.40;99.90;;;;;;5011164;28;20485;-80
2020/12/18 10:11:12;;;;;;;44.20;16.00;;;7.40;99.90;;;;;;5012916;28;20216;-81
2020/12/18 10:13:38;;;;;;;37.50;13.00;;;7.50;99.90;;;;;;5012771;28;20485;-81
2020/12/18 10:16:04;;;;;;;143.88;29.13;;;7.60;99.90;;;;;;5013892;28;20544;-80
2020/12/18 10:18:31;;;;;;;15.70;12.18;;;7.60;99.90;;;;;;5012787;28;20680;-82
2020/12/18 10:20:58;;;;;;;21.03;12.57;;;7.60;99.90;;;;;;5013196;28;20203;-80
2020/12/18 10:23:25;;;;;;;13.23;10.33;;;7.60;99.90;;;;;;5011085;28;20450;-82
2020/12/18 10:25:52;;;;;;;17.10;10.77;;;7.60;99.90;;;;;;5014145;28;20489;-81
2020/12/18 10:28:18;;;;;;;27.35;12.45;;;7.60;99.90;;;;;;5014251;28;20970;-82
2020/12/18 10:30:45;;;;;;;13.87;10.43;;;7.80;99.90;;;;;;5014167;28;20271;-82
2020/12/18 10:33:11;;;;;;;16.27;11.20;;;7.80;99.90;;;;;;5013457;28;20532;-81
2020/12/18 10:35:38;;;;;;;15.67;11.17;;;7.80;99.90;;;;;;5013111;28;20501;-82
2020/12/18 10:38:04;;;;;;;13.63;9.33;;;8.00;99.90;;;;;;5014603;28;20541;-82
2020/12/18 10:40:32;;;;;;;11.63;9.90;;;8.00;99.90;;;;;;5014339;28;20984;-82
2020/12/18 10:42:59;;;;;;;13.40;9.53;;;8.00;99.90;;;;;;5014580;28;20552;-81
2020/12/18 10:45:25;;;;;;;14.33;10.20;;;8.00;99.90;;;;;;5015167;28;20529;-81
2020/12/18 10:47:52;;;;;;;11.03;9.90;;;8.20;99.90;;;;;;5015616;28;20535;-79
2020/12/18 10:50:18;;;;;;;13.60;10.50;;;8.20;99.90;;;;;;5013865;28;20483;-80
2020/12/18 10:52:45;;;;;;;11.87;10.63;;;8.20;99.90;;;;;;5018659;28;20514;-80
2020/12/18 10:55:11;;;;;;;10.30;9.07;;;8.20;99.90;;;;;;5021688;28;20461;-81
2020/12/18 10:57:37;;;;;;;14.70;10.60;;;8.40;99.90;;;;;;5020199;28;20541;-80
2020/12/18 11:00:05;;;;;;;12.53;8.93;;;8.50;99.90;;;;;;5020809;28;20890;-81
2020/12/18 11:02:35;;;;;;;15.63;10.57;;;8.50;99.90;;;;;;5021590;28;20606;-80
2020/12/18 11:05:02;;;;;;;15.67;9.97;;;8.60;99.90;;;;;;5025271;28;20462;-79
2020/12/18 11:07:28;;;;;;;16.13;9.40;;;8.70;99.90;;;;;;5027116;28;20542;-80
2020/12/18 11:09:54;;;;;;;13.07;9.90;;;8.80;99.90;;;;;;5028066;28;20522;-81
2020/12/18 11:12:21;;;;;;;12.73;9.03;;;8.90;99.90;;;;;;5026989;28;20533;-82
2020/12/18 11:14:48;;;;;;;10.37;8.50;;;8.90;99.90;;;;;;5026425;28;20454;-81
2020/12/18 11:17:15;;;;;;;12.20;9.83;;;9.00;99.90;;;;;;5022159;28;21115;-81
2020/12/18 11:19:41;;;;;;;13.27;9.20;;;9.20;99.90;;;;;;5018789;28;20512;-82
2020/12/18 11:22:08;;;;;;;11.90;9.50;;;9.20;99.90;;;;;;5019968;28;20516;-82
2020/12/18 11:24:36;;;;;;;15.07;10.27;;;9.30;99.90;;;;;;5016115;28;20896;-82
2020/12/18 11:27:02;;;;;;;11.67;8.97;;;9.30;99.90;;;;;;5015746;28;20541;-82
2020/12/18 11:29:28;;;;;;;15.03;9.47;;;9.30;99.90;;;;;;5015894;28;21051;-82
2020/12/18 11:31:55;;;;;;;11.27;8.13;;;9.40;99.90;;;;;;5016007;28;20546;-82
2020/12/18 11:34:22;;;;;;;14.47;8.60;;;9.40;99.90;;;;;;5029136;28;20461;-82
2020/12/18 11:36:48;;;;;;;10.30;9.17;;;9.40;99.90;;;;;;5035958;28;20990;-82
2020/12/18 11:39:15;;;;;;;12.47;9.23;;;9.40;99.90;;;;;;5035561;28;20604;-82
2020/12/18 11:41:42;;;;;;;12.10;9.13;;;9.40;99.90;;;;;;5034976;28;20548;-82
2020/12/18 11:44:08;;;;;;;18.70;9.90;;;9.50;99.90;;;;;;5035667;28;20504;-80
2020/12/18 11:46:34;;;;;;;10.30;8.60;;;9.60;99.90;;;;;;5035717;28;20493;-81
2020/12/18 11:49:01;;;;;;;17.60;11.27;;;9.60;99.90;;;;;;5034382;28;20532;-81
2020/12/18 11:51:29;;;;;;;15.57;10.30;;;9.60;99.90;;;;;;5035761;28;20549;-79
2020/12/18 11:53:55;;;;;;;16.03;11.53;;;9.70;99.90;;;;;;5036055;28;20807;-79
2020/12/18 11:56:22;;;;;;;11.83;9.97;;;9.70;99.90;;;;;;5036648;28;20540;-79
2020/12/18 11:58:48;;;;;;;14.97;8.77;;;9.80;99.90;;;;;;5037373;28;21031;-80
2020/12/18 12:01:21;;;;;;;12.73;9.57;;;9.70;99.90;;;;;;5043647;28;20524;-78
2020/12/18 12:03:48;;;;;;;14.23;9.33;;;9.70;99.90;;;;;;5029627;28;20455;-79
2020/12/18 12:06:14;;;;;;;13.40;9.50;;;9.80;99.90;;;;;;5022626;28;20522;-79
2020/12/18 12:08:41;;;;;;;15.20;9.20;;;9.90;99.90;;;;;;5015065;28;20577;-79
2020/12/18 12:11:09;;;;;;;15.90;9.73;;;10.00;99.90;;;;;;5015605;28;20454;-79
2020/12/18 12:13:35;;;;;;;12.67;10.03;;;10.10;99.90;;;;;;5015355;28;20500;-79
2020/12/18 12:16:01;;;;;;;10.90;9.80;;;10.20;99.90;;;;;;5015385;28;20470;-79
2020/12/18 12:18:28;;;;;;;14.70;9.40;;;10.20;99.90;;;;;;5015183;28;20545;-79
2020/12/18 12:20:54;;;;;;;12.33;9.23;;;10.10;99.90;;;;;;5014146;28;20604;-80
2020/12/18 12:23:20;;;;;;;12.30;9.90;;;10.20;99.90;;;;;;5014865;28;20534;-79
2020/12/18 12:25:48;;;;;;;10.53;8.90;;;10.20;99.90;;;;;;5014745;28;20479;-79
2020/12/18 12:28:14;;;;;;;11.50;9.70;;;10.30;99.90;;;;;;5013909;28;20546;-79
2020/12/18 12:30:41;;;;;;;12.00;9.23;;;10.30;99.90;;;;;;5014772;28;20545;-79
2020/12/18 12:33:07;;;;;;;11.00;9.77;;;10.30;99.90;;;;;;5014459;28;20573;-79
2020/12/18 12:35:33;;;;;;;12.03;9.90;;;10.50;99.90;;;;;;5013493;28;20531;-79
2020/12/18 12:38:04;;;;;;;18.97;10.70;;;10.50;99.90;;;;;;5014590;28;20537;-79
2020/12/18 12:40:30;;;;;;;14.00;11.03;;;10.50;99.90;;;;;;5014506;28;20479;-79
2020/12/18 12:42:58;;;;;;;15.73;11.40;;;10.60;99.90;;;;;;5014330;28;20462;-79
2020/12/18 12:45:25;;;;;;;13.97;9.87;;;10.60;99.90;;;;;;5014356;28;20497;-79
2020/12/18 12:47:51;;;;;;;13.37;10.57;;;10.80;99.90;;;;;;5014436;28;20459;-79